Time;durP1;ratioP1;P1;durP2;ratioP2;P2;SDS_P1;SDS_P2;PMS_P1;PMS_P2;Temp;Humidity;BMP_temperature;BMP_pressure;BME280_temperature;BME280_humidity;BME280_pressure;Samples;Min_cycle;Max_cycle;Signal;HPM_P1;HPM_P2
2022/05/04 00:01:37;;;;;;;26.05;23.40;;;;;;;;;;5023756;28;20140;-64
2022/05/04 00:04:03;;;;;;;25.63;23.20;;;;;;;;;;5023021;28;20025;-66
2022/05/04 00:06:29;;;;;;;27.58;23.42;;;;;;;;;;5011233;28;20480;-67
2022/05/04 00:08:54;;;;;;;26.00;23.20;;;;;;;;;;5021016;28;20475;-67
2022/05/04 00:11:20;;;;;;;26.75;23.90;;;;;;;;;;5025352;28;20102;-67
2022/05/04 00:13:45;;;;;;;26.40;23.70;;;;;;;;;;5011372;28;20500;-67
2022/05/04 00:16:11;;;;;;;25.88;23.38;;;;;;;;;;5018413;28;20389;-67
2022/05/04 00:18:36;;;;;;;25.27;22.88;;;;;;;;;;5022462;28;20069;-66
2022/05/04 00:21:02;;;;;;;24.27;22.05;;;;;;;;;;5020230;28;20029;-66
2022/05/04 00:23:28;;;;;;;25.02;22.15;;;;;;;;;;5018713;28;20048;-65
2022/05/04 00:25:53;;;;;;;23.80;21.40;;;;;;;;;;5014718;28;20036;-66
2022/05/04 00:28:19;;;;;;;23.65;21.15;;;;;;;;;;5024855;28;20669;-66
2022/05/04 00:30:45;;;;;;;23.15;21.17;;;;;;;;;;5026024;28;20029;-66
2022/05/04 00:33:11;;;;;;;22.63;20.42;;;;;;;;;;5014419;28;20044;-65
2022/05/04 00:35:38;;;;;;;21.77;19.83;;;;;;;;;;5021325;28;20053;-66
2022/05/04 00:38:03;;;;;;;21.10;19.20;;;;;;;;;;5025917;28;20082;-66
2022/05/04 00:40:29;;;;;;;21.77;19.85;;;;;;;;;;5022757;28;20519;-66
2022/05/04 00:42:55;;;;;;;21.27;19.38;;;;;;;;;;5013998;28;20039;-66
2022/05/04 00:45:20;;;;;;;25.67;20.55;;;;;;;;;;5022995;28;20025;-66
2022/05/04 00:47:46;;;;;;;20.88;18.88;;;;;;;;;;5025361;28;20041;-66
2022/05/04 00:50:12;;;;;;;21.63;19.63;;;;;;;;;;5015758;28;20106;-65
2022/05/04 00:52:40;;;;;;;21.58;19.42;;;;;;;;;;5015864;28;20048;-67
2022/05/04 00:55:07;;;;;;;21.38;19.38;;;;;;;;;;5022324;28;20120;-67
2022/05/04 01:00:28;;;;;;;20.40;18.70;;;;;;;;;;5011148;28;20030;-66
2022/05/04 01:02:53;;;;;;;20.92;18.88;;;;;;;;;;5025689;28;20408;-65
2022/05/04 01:05:19;;;;;;;21.00;19.10;;;;;;;;;;5024263;28;20036;-66
2022/05/04 01:07:46;;;;;;;21.73;19.80;;;;;;;;;;5014436;28;20208;-66
2022/05/04 01:10:14;;;;;;;20.83;18.98;;;;;;;;;;5019553;28;20037;-66
2022/05/04 01:12:51;;;;;;;20.70;18.20;;;;;;;;;;5026261;28;20443;-66
2022/05/04 01:15:18;;;;;;;19.95;18.13;;;;;;;;;;5017302;28;20385;-65
2022/05/04 01:17:44;;;;;;;21.10;18.90;;;;;;;;;;5012728;28;20045;-66
2022/05/04 01:20:10;;;;;;;21.70;19.45;;;;;;;;;;5025688;28;20032;-66
2022/05/04 01:22:36;;;;;;;20.55;18.75;;;;;;;;;;5023630;28;20551;-66
2022/05/04 01:25:04;;;;;;;20.75;19.05;;;;;;;;;;5014169;28;20034;-65
2022/05/04 01:27:29;;;;;;;20.58;18.80;;;;;;;;;;5025997;28;20447;-65
2022/05/04 01:29:55;;;;;;;21.33;19.23;;;;;;;;;;5029025;28;20045;-64
2022/05/04 01:32:21;;;;;;;21.85;19.80;;;;;;;;;;5026964;28;20095;-66
2022/05/04 01:34:46;;;;;;;20.52;18.77;;;;;;;;;;5015146;28;20117;-66
2022/05/04 01:37:12;;;;;;;21.40;19.25;;;;;;;;;;5026805;28;20044;-65
2022/05/04 01:39:37;;;;;;;19.70;17.73;;;;;;;;;;5029293;28;20095;-65
2022/05/04 01:42:05;;;;;;;19.52;17.92;;;;;;;;;;5014351;28;20098;-65
2022/05/04 01:44:34;;;;;;;19.85;18.13;;;;;;;;;;5021348;28;20355;-65
2022/05/04 01:47:00;;;;;;;21.25;19.35;;;;;;;;;;5029061;28;20139;-66
2022/05/04 01:49:26;;;;;;;21.40;19.38;;;;;;;;;;5017428;28;20048;-66
2022/05/04 01:51:52;;;;;;;20.63;18.67;;;;;;;;;;5015663;28;20030;-65
2022/05/04 01:54:17;;;;;;;19.77;18.08;;;;;;;;;;5018668;28;20037;-67
2022/05/04 01:56:43;;;;;;;20.75;18.75;;;;;;;;;;5026174;28;20040;-66
2022/05/04 01:59:09;;;;;;;21.15;19.10;;;;;;;;;;5014979;28;20088;-66
2022/05/04 02:01:35;;;;;;;20.50;18.65;;;;;;;;;;5024428;28;20524;-65
2022/05/04 02:04:02;;;;;;;19.85;17.95;;;;;;;;;;5028452;28;20397;-66
2022/05/04 02:06:29;;;;;;;20.10;18.38;;;;;;;;;;5024588;28;20492;-65
2022/05/04 02:08:57;;;;;;;20.10;18.30;;;;;;;;;;5021957;28;20068;-65
2022/05/04 02:11:23;;;;;;;20.13;18.30;;;;;;;;;;5028900;28;20061;-66
2022/05/04 02:13:49;;;;;;;20.40;18.50;;;;;;;;;;5023705;28;20051;-65
2022/05/04 02:16:15;;;;;;;19.67;17.85;;;;;;;;;;5021295;28;20576;-65
2022/05/04 02:18:40;;;;;;;19.45;17.92;;;;;;;;;;5028283;28;20044;-66
2022/05/04 02:21:06;;;;;;;19.58;17.95;;;;;;;;;;5024622;28;20129;-66
2022/05/04 02:23:31;;;;;;;19.52;17.92;;;;;;;;;;5024690;28;20136;-65
2022/05/04 02:25:57;;;;;;;20.80;18.80;;;;;;;;;;5027956;28;20029;-66
2022/05/04 02:28:23;;;;;;;19.70;17.90;;;;;;;;;;5028305;28;20041;-66
2022/05/04 02:30:48;;;;;;;20.52;18.52;;;;;;;;;;5022739;28;20041;-66
2022/05/04 02:33:14;;;;;;;20.40;18.55;;;;;;;;;;5025273;28;20044;-65
2022/05/04 02:38:24;;;;;;;19.77;17.75;;;;;;;;;;5028965;28;20037;-65
2022/05/04 02:40:50;;;;;;;20.90;18.20;;;;;;;;;;5016220;28;20044;-65
2022/05/04 02:43:16;;;;;;;20.00;18.00;;;;;;;;;;5019760;28;20450;-65
2022/05/04 02:45:41;;;;;;;19.63;17.60;;;;;;;;;;5022601;28;20053;-65
2022/05/04 02:48:08;;;;;;;19.85;17.95;;;;;;;;;;5023010;28;20172;-65
2022/05/04 02:50:35;;;;;;;20.05;18.33;;;;;;;;;;5024717;28;20511;-65
2022/05/04 02:53:01;;;;;;;19.50;17.90;;;;;;;;;;5021840;28;20400;-67
2022/05/04 02:55:26;;;;;;;18.83;17.33;;;;;;;;;;5023287;28;20025;-65
2022/05/04 02:57:52;;;;;;;20.27;18.33;;;;;;;;;;5019796;28;20563;-66
2022/05/04 03:00:18;;;;;;;20.30;18.50;;;;;;;;;;5015249;28;20125;-65
2022/05/04 03:02:44;;;;;;;21.70;19.70;;;;;;;;;;5017324;28;20714;-65
2022/05/04 03:05:11;;;;;;;20.33;18.48;;;;;;;;;;5018525;28;20060;-66
2022/05/04 03:07:37;;;;;;;20.08;18.17;;;;;;;;;;5022792;28;20045;-66
2022/05/04 03:10:04;;;;;;;20.58;18.70;;;;;;;;;;5021670;28;20041;-66
2022/05/04 03:12:30;;;;;;;20.70;18.83;;;;;;;;;;5019236;28;20041;-65
2022/05/04 03:14:56;;;;;;;20.77;18.88;;;;;;;;;;5025151;28;20025;-66
2022/05/04 03:17:22;;;;;;;20.17;18.38;;;;;;;;;;5020503;28;20037;-66
2022/05/04 03:19:48;;;;;;;20.58;18.48;;;;;;;;;;5022571;28;20041;-66
2022/05/04 03:22:13;;;;;;;21.75;18.80;;;;;;;;;;5017195;28;20045;-66
2022/05/04 03:24:39;;;;;;;20.55;18.65;;;;;;;;;;5017797;28;20037;-66
2022/05/04 03:27:07;;;;;;;19.77;17.98;;;;;;;;;;5017651;28;20038;-65
2022/05/04 03:29:33;;;;;;;19.77;18.08;;;;;;;;;;5021785;28;20476;-65
2022/05/04 03:31:59;;;;;;;20.10;18.33;;;;;;;;;;5021718;28;20514;-65
2022/05/04 03:34:25;;;;;;;19.90;17.95;;;;;;;;;;5022990;28;20091;-65
2022/05/04 03:36:51;;;;;;;19.23;17.52;;;;;;;;;;5020832;28;20061;-65
2022/05/04 03:39:17;;;;;;;18.45;16.88;;;;;;;;;;5022867;28;20056;-65
2022/05/04 03:41:44;;;;;;;20.25;18.48;;;;;;;;;;5020258;28;20069;-65
2022/05/04 03:44:10;;;;;;;20.02;18.33;;;;;;;;;;5017336;28;20037;-65
2022/05/04 03:46:46;;;;;;;20.08;18.38;;;;;;;;;;5024322;28;20041;-64
2022/05/04 03:49:15;;;;;;;21.33;19.20;;;;;;;;;;5020073;28;20121;-67
2022/05/04 03:51:41;;;;;;;19.65;17.65;;;;;;;;;;5017062;28;20041;-65
2022/05/04 03:54:07;;;;;;;18.90;17.25;;;;;;;;;;5017298;28;20686;-66
2022/05/04 03:56:33;;;;;;;18.73;17.02;;;;;;;;;;5019807;28;20037;-66
2022/05/04 03:58:59;;;;;;;19.55;17.92;;;;;;;;;;5021057;28;20092;-65
2022/05/04 04:01:25;;;;;;;19.77;17.92;;;;;;;;;;5019819;28;20120;-65
2022/05/04 04:03:50;;;;;;;17.98;16.42;;;;;;;;;;5017410;28;20109;-65
2022/05/04 04:06:16;;;;;;;18.88;17.27;;;;;;;;;;5017047;28;20486;-66
2022/05/04 04:08:42;;;;;;;19.33;17.70;;;;;;;;;;5026014;28;20700;-65
2022/05/04 04:11:08;;;;;;;19.35;17.67;;;;;;;;;;5026791;28;20578;-67
2022/05/04 04:13:34;;;;;;;19.10;17.50;;;;;;;;;;5019549;28;20045;-65
2022/05/04 04:15:59;;;;;;;19.58;17.85;;;;;;;;;;5022913;28;20099;-66
2022/05/04 04:18:26;;;;;;;19.73;17.98;;;;;;;;;;5026567;28;20037;-65
2022/05/04 04:23:39;;;;;;;20.13;18.38;;;;;;;;;;5020820;28;20037;-65
2022/05/04 04:26:06;;;;;;;18.77;17.25;;;;;;;;;;5019114;28;20029;-66
2022/05/04 04:28:34;;;;;;;19.33;17.80;;;;;;;;;;5025348;28;20038;-65
2022/05/04 04:31:00;;;;;;;19.23;17.52;;;;;;;;;;5015833;28;20040;-65
2022/05/04 04:33:29;;;;;;;18.63;17.02;;;;;;;;;;5023636;28;20044;-65
2022/05/04 04:35:55;;;;;;;22.02;18.15;;;;;;;;;;5026102;28;20072;-65
2022/05/04 04:38:21;;;;;;;19.10;17.58;;;;;;;;;;5013882;28;20037;-64
2022/05/04 04:40:47;;;;;;;18.70;17.30;;;;;;;;;;5022118;28;20041;-65
2022/05/04 04:43:14;;;;;;;18.80;17.25;;;;;;;;;;5016328;28;20104;-65
2022/05/04 04:45:40;;;;;;;19.15;17.35;;;;;;;;;;5017588;28;20076;-65
2022/05/04 04:48:06;;;;;;;20.75;17.73;;;;;;;;;;5017870;28;20088;-66
2022/05/04 04:50:32;;;;;;;21.10;19.10;;;;;;;;;;5012358;28;20492;-65
2022/05/04 04:52:57;;;;;;;20.48;18.77;;;;;;;;;;5019815;28;20535;-66
2022/05/04 04:55:23;;;;;;;20.80;18.75;;;;;;;;;;5016921;28;20109;-65
2022/05/04 04:57:49;;;;;;;20.77;19.08;;;;;;;;;;5022953;28;20060;-65
2022/05/04 05:00:15;;;;;;;20.55;18.67;;;;;;;;;;5029817;28;20125;-65
2022/05/04 05:02:41;;;;;;;20.38;18.58;;;;;;;;;;5023492;28;20064;-66
2022/05/04 05:05:07;;;;;;;20.73;18.75;;;;;;;;;;5024934;28;20039;-65
2022/05/04 05:07:33;;;;;;;20.70;18.92;;;;;;;;;;5026737;28;20053;-65
2022/05/04 05:09:58;;;;;;;21.50;19.50;;;;;;;;;;5025517;28;20091;-65
2022/05/04 05:12:24;;;;;;;20.92;19.02;;;;;;;;;;5025710;28;20329;-65
2022/05/04 05:17:35;;;;;;;19.90;18.10;;;;;;;;;;5028647;28;20033;-64
2022/05/04 05:20:02;;;;;;;20.67;18.60;;;;;;;;;;5030848;28;20045;-66
2022/05/04 05:22:28;;;;;;;20.35;18.55;;;;;;;;;;5017872;28;20036;-66
2022/05/04 05:24:54;;;;;;;20.23;18.33;;;;;;;;;;5022401;28;20100;-65
2022/05/04 05:27:22;;;;;;;21.05;18.90;;;;;;;;;;5027803;28;20400;-65
2022/05/04 05:29:48;;;;;;;19.90;18.17;;;;;;;;;;5030333;28;20116;-65
2022/05/04 05:32:13;;;;;;;20.60;18.75;;;;;;;;;;5015188;28;20497;-65
2022/05/04 05:34:39;;;;;;;21.02;19.02;;;;;;;;;;5021404;28;20528;-65
2022/05/04 05:37:04;;;;;;;19.77;18.08;;;;;;;;;;5029270;28;20338;-65
2022/05/04 05:39:30;;;;;;;19.92;18.33;;;;;;;;;;5025603;28;21672;-65
2022/05/04 05:41:56;;;;;;;20.58;18.88;;;;;;;;;;5016753;28;20030;-65
2022/05/04 05:44:21;;;;;;;20.38;18.67;;;;;;;;;;5024835;28;20044;-65
2022/05/04 05:46:47;;;;;;;21.42;19.25;;;;;;;;;;5030051;28;20030;-65
2022/05/04 05:49:12;;;;;;;20.20;18.30;;;;;;;;;;5024884;28;20484;-65
2022/05/04 05:51:38;;;;;;;19.88;18.23;;;;;;;;;;5021734;28;20049;-65
2022/05/04 05:54:04;;;;;;;20.80;18.85;;;;;;;;;;5020824;28;20041;-65
2022/05/04 05:56:29;;;;;;;19.95;18.08;;;;;;;;;;5027305;28;20038;-65
2022/05/04 05:58:55;;;;;;;19.95;18.27;;;;;;;;;;5009800;28;20072;-66
2022/05/04 06:01:21;;;;;;;19.63;17.92;;;;;;;;;;5017966;28;20029;-65
2022/05/04 06:03:46;;;;;;;19.70;17.98;;;;;;;;;;5026295;28;20063;-66
2022/05/04 06:06:12;;;;;;;19.50;17.85;;;;;;;;;;5020704;28;20274;-66
2022/05/04 06:08:37;;;;;;;18.67;17.08;;;;;;;;;;5021687;28;20037;-65
2022/05/04 06:11:04;;;;;;;19.40;17.70;;;;;;;;;;5023526;28;20034;-65
2022/05/04 06:13:30;;;;;;;20.17;18.15;;;;;;;;;;5023798;28;20038;-65
2022/05/04 06:15:56;;;;;;;20.17;18.48;;;;;;;;;;5020781;28;20023;-65
2022/05/04 06:18:21;;;;;;;19.60;17.75;;;;;;;;;;5023598;28;20044;-65
2022/05/04 06:20:47;;;;;;;18.50;17.08;;;;;;;;;;5030161;28;20037;-65
2022/05/04 06:23:12;;;;;;;18.35;16.85;;;;;;;;;;5028998;28;20515;-65
2022/05/04 06:25:38;;;;;;;18.92;17.27;;;;;;;;;;5015754;28;20065;-65
2022/05/04 06:28:04;;;;;;;18.58;17.15;;;;;;;;;;5019385;28;20045;-65
2022/05/04 06:35:57;;;;;;;18.52;16.83;;;;;;;;;;5018890;28;20107;-66
2022/05/04 06:38:23;;;;;;;17.98;16.48;;;;;;;;;;5016633;28;20469;-66
2022/05/04 06:40:49;;;;;;;18.77;17.15;;;;;;;;;;5022383;28;20067;-66
2022/05/04 06:43:15;;;;;;;19.25;17.65;;;;;;;;;;5027926;28;20061;-66
2022/05/04 06:45:41;;;;;;;19.27;17.67;;;;;;;;;;5029738;28;20688;-65
2022/05/04 06:48:07;;;;;;;19.02;17.38;;;;;;;;;;5020810;28;20034;-65
2022/05/04 06:50:32;;;;;;;18.75;17.25;;;;;;;;;;5015109;28;20041;-65
2022/05/04 06:52:58;;;;;;;18.05;16.60;;;;;;;;;;5026257;28;20048;-64
2022/05/04 06:55:24;;;;;;;17.85;16.40;;;;;;;;;;5020697;28;20385;-65
2022/05/04 06:57:49;;;;;;;17.90;16.33;;;;;;;;;;5017601;28;20443;-64
2022/05/04 07:00:15;;;;;;;17.70;16.20;;;;;;;;;;5029432;28;20037;-65
2022/05/04 07:02:41;;;;;;;18.23;16.83;;;;;;;;;;5024492;28;20053;-65
2022/05/04 07:05:07;;;;;;;18.27;16.67;;;;;;;;;;5012737;28;20052;-65
2022/05/04 07:07:33;;;;;;;17.65;16.20;;;;;;;;;;5025681;28;20079;-66
2022/05/04 07:09:59;;;;;;;16.92;15.43;;;;;;;;;;5029108;28;20033;-65
2022/05/04 07:12:25;;;;;;;17.60;16.13;;;;;;;;;;5026910;28;20026;-65
2022/05/04 07:14:56;;;;;;;17.33;15.70;;;;;;;;;;5025803;28;20120;-65
2022/05/04 07:17:26;;;;;;;17.42;15.98;;;;;;;;;;5029010;28;20033;-65
2022/05/04 07:19:52;;;;;;;17.10;15.65;;;;;;;;;;5027399;28;20037;-65
2022/05/04 07:22:18;;;;;;;17.58;15.93;;;;;;;;;;5017393;28;20064;-66
2022/05/04 07:24:44;;;;;;;17.00;15.75;;;;;;;;;;5024000;28;20072;-65
2022/05/04 07:27:10;;;;;;;17.98;16.48;;;;;;;;;;5025203;28;20128;-65
2022/05/04 07:29:35;;;;;;;17.48;16.15;;;;;;;;;;5022026;28;20025;-65
2022/05/04 07:32:02;;;;;;;17.45;16.02;;;;;;;;;;5021904;28;20220;-65
2022/05/04 07:34:28;;;;;;;17.85;16.55;;;;;;;;;;5027636;28;20037;-64
2022/05/04 07:36:53;;;;;;;16.88;15.48;;;;;;;;;;5025301;28;20613;-65
2022/05/04 07:42:24;;;;;;;17.33;15.80;;;;;;;;;;5024432;28;20037;-66
2022/05/04 07:45:11;;;;;;;17.80;16.13;;;;;;;;;;5026746;28;20052;-65
2022/05/04 07:47:37;;;;;;;17.48;16.00;;;;;;;;;;5022728;28;20056;-65
2022/05/04 07:50:06;;;;;;;16.50;15.20;;;;;;;;;;5022290;28;20481;-65
2022/05/04 07:52:32;;;;;;;16.47;15.27;;;;;;;;;;5024994;28;20064;-65
2022/05/04 07:54:57;;;;;;;17.25;15.75;;;;;;;;;;5023278;28;20493;-67
2022/05/04 07:57:23;;;;;;;16.10;14.90;;;;;;;;;;5021923;28;20037;-65
2022/05/04 08:05:39;;;;;;;17.52;15.98;;;;;;;;;;5011173;28;20064;-65
2022/05/04 08:08:04;;;;;;;16.38;14.98;;;;;;;;;;5004448;28;20061;-59
2022/05/04 08:10:30;;;;;;;18.10;16.25;;;;;;;;;;4999190;28;20033;-59
2022/05/04 08:12:58;;;;;;;17.10;15.80;;;;;;;;;;5008427;28;20037;-62
2022/05/04 08:15:24;;;;;;;18.08;16.25;;;;;;;;;;5008368;28;20033;-60
2022/05/04 08:17:50;;;;;;;17.15;15.73;;;;;;;;;;5006774;28;20045;-60
2022/05/04 08:20:15;;;;;;;17.90;16.17;;;;;;;;;;4999346;28;20038;-59
2022/05/04 08:22:41;;;;;;;17.58;16.17;;;;;;;;;;5003232;28;20038;-59
2022/05/04 08:25:07;;;;;;;17.30;15.88;;;;;;;;;;5003974;28;20042;-59
2022/05/04 08:27:32;;;;;;;16.95;15.45;;;;;;;;;;5001586;28;20030;-60
2022/05/04 08:29:59;;;;;;;17.80;16.40;;;;;;;;;;4989150;28;20057;-60
2022/05/04 08:32:29;;;;;;;18.80;17.17;;;;;;;;;;5008164;28;20045;-59
2022/05/04 08:34:58;;;;;;;18.75;17.15;;;;;;;;;;5007844;28;20045;-58
2022/05/04 08:37:27;;;;;;;19.20;17.40;;;;;;;;;;4996616;28;20042;-60
2022/05/04 08:39:53;;;;;;;19.05;17.52;;;;;;;;;;5005253;28;20180;-58
2022/05/04 08:42:19;;;;;;;18.92;17.13;;;;;;;;;;5007991;28;20087;-59
2022/05/04 08:44:48;;;;;;;18.45;16.92;;;;;;;;;;5003592;28;20501;-57
2022/05/04 08:47:17;;;;;;;18.50;16.80;;;;;;;;;;5000809;28;20038;-60
2022/05/04 08:49:46;;;;;;;18.95;17.35;;;;;;;;;;5007999;28;20363;-60
2022/05/04 08:52:12;;;;;;;18.88;17.02;;;;;;;;;;5005159;28;20038;-58
2022/05/04 08:54:38;;;;;;;18.80;16.92;;;;;;;;;;4998866;28;20030;-60
2022/05/04 08:57:04;;;;;;;20.17;16.52;;;;;;;;;;5005287;28;20030;-60
2022/05/04 08:59:29;;;;;;;19.80;16.95;;;;;;;;;;5006583;28;20041;-60
2022/05/04 09:01:55;;;;;;;17.83;16.40;;;;;;;;;;5001607;28;20033;-57
2022/05/04 09:04:21;;;;;;;18.95;17.00;;;;;;;;;;5005538;28;20033;-58
2022/05/04 09:06:48;;;;;;;18.35;16.92;;;;;;;;;;5007821;28;20042;-59
2022/05/04 09:09:15;;;;;;;18.23;16.52;;;;;;;;;;4998576;28;20117;-59
2022/05/04 09:11:43;;;;;;;18.23;16.65;;;;;;;;;;5006556;28;20052;-59
2022/05/04 09:14:15;;;;;;;17.23;15.85;;;;;;;;;;5007508;28;20460;-56
2022/05/04 09:16:41;;;;;;;18.65;17.05;;;;;;;;;;5005438;28;20056;-59
2022/05/04 09:19:07;;;;;;;18.10;16.60;;;;;;;;;;5000221;28;20061;-60
2022/05/04 09:21:33;;;;;;;17.45;16.08;;;;;;;;;;5006577;28;20160;-60
2022/05/04 09:23:59;;;;;;;17.10;15.70;;;;;;;;;;4997985;28;20141;-59
2022/05/04 09:26:25;;;;;;;18.05;16.48;;;;;;;;;;5002146;28;20037;-60
2022/05/04 09:28:52;;;;;;;18.30;16.65;;;;;;;;;;5001753;28;20033;-60
2022/05/04 09:31:18;;;;;;;16.58;15.13;;;;;;;;;;5007536;28;20092;-58
2022/05/04 09:33:52;;;;;;;16.73;15.43;;;;;;;;;;5007297;28;20093;-60
2022/05/04 09:36:29;;;;;;;17.20;15.63;;;;;;;;;;4999428;28;20039;-60
2022/05/04 09:45:06;;;;;;;16.10;14.57;;;;;;;;;;5003400;28;20413;-59
2022/05/04 09:47:36;;;;;;;15.43;13.93;;;;;;;;;;5007848;28;20050;-60
2022/05/04 09:50:03;;;;;;;14.88;13.45;;;;;;;;;;5010744;28;20130;-59
2022/05/04 09:52:40;;;;;;;13.75;12.73;;;;;;;;;;5007562;28;20457;-61
2022/05/04 09:55:20;;;;;;;14.93;13.73;;;;;;;;;;4999987;28;20050;-60
2022/05/04 09:57:47;;;;;;;16.65;14.90;;;;;;;;;;5010526;28;20129;-61
2022/05/04 10:00:15;;;;;;;14.98;13.77;;;;;;;;;;5010823;28;20563;-60
2022/05/04 10:02:44;;;;;;;13.40;12.48;;;;;;;;;;5007760;28;20122;-60
2022/05/04 10:05:10;;;;;;;15.10;13.90;;;;;;;;;;5004464;28;20045;-61
2022/05/04 10:07:37;;;;;;;14.80;13.63;;;;;;;;;;5010437;28;20037;-61
2022/05/04 10:10:05;;;;;;;14.93;13.73;;;;;;;;;;5009733;28;20076;-60
2022/05/04 10:12:32;;;;;;;15.88;13.82;;;;;;;;;;5000697;28;20125;-60
2022/05/04 10:14:58;;;;;;;18.63;14.98;;;;;;;;;;4990499;28;20046;-60
2022/05/04 10:17:26;;;;;;;16.30;15.05;;;;;;;;;;5010527;28;20059;-60
2022/05/04 10:20:09;;;;;;;18.20;16.70;;;;;;;;;;5003593;28;20065;-59
2022/05/04 10:22:43;;;;;;;17.67;16.10;;;;;;;;;;5006457;28;20394;-61
2022/05/04 10:25:09;;;;;;;18.17;16.58;;;;;;;;;;5002045;28;20046;-61
2022/05/04 10:27:43;;;;;;;18.60;16.70;;;;;;;;;;5004682;28;20061;-60
2022/05/04 10:33:13;;;;;;;18.20;16.48;;;;;;;;;;5004214;28;20038;-60
2022/05/04 10:35:40;;;;;;;17.50;15.77;;;;;;;;;;5002437;28;20041;-60
2022/05/04 10:38:11;;;;;;;18.58;16.77;;;;;;;;;;5006347;28;20068;-60
2022/05/04 10:40:42;;;;;;;17.52;16.13;;;;;;;;;;5009109;28;20061;-60
2022/05/04 10:43:13;;;;;;;17.15;15.65;;;;;;;;;;4998473;28;20125;-60
2022/05/04 10:45:41;;;;;;;16.92;15.60;;;;;;;;;;5008363;28;20047;-60
2022/05/04 10:48:22;;;;;;;16.65;15.23;;;;;;;;;;5009843;28;20041;-61
2022/05/04 10:51:02;;;;;;;14.95;13.43;;;;;;;;;;4999502;28;20034;-60
2022/05/04 10:53:28;;;;;;;17.30;15.73;;;;;;;;;;5002182;28;20038;-60
2022/05/04 10:56:06;;;;;;;17.17;15.45;;;;;;;;;;4997641;28;20030;-61
2022/05/04 10:58:52;;;;;;;17.50;15.95;;;;;;;;;;5001036;28;20038;-58
2022/05/04 11:01:31;;;;;;;17.98;16.38;;;;;;;;;;5004675;28;20358;-60
2022/05/04 11:03:58;;;;;;;18.20;16.42;;;;;;;;;;5009424;28;20038;-60
2022/05/04 11:06:30;;;;;;;18.42;16.52;;;;;;;;;;4995619;28;20034;-60
2022/05/04 11:09:02;;;;;;;17.38;15.93;;;;;;;;;;4999960;28;20076;-61
2022/05/04 11:11:28;;;;;;;18.10;16.35;;;;;;;;;;5009685;28;20052;-61
2022/05/04 11:13:54;;;;;;;17.85;16.15;;;;;;;;;;5009030;28;20046;-61
2022/05/04 11:16:21;;;;;;;16.83;15.32;;;;;;;;;;5004613;28;20037;-60
2022/05/04 11:18:47;;;;;;;16.52;14.68;;;;;;;;;;5005008;28;20116;-61
2022/05/04 11:21:14;;;;;;;17.10;15.70;;;;;;;;;;5009146;28;20129;-60
2022/05/04 11:23:46;;;;;;;18.25;16.50;;;;;;;;;;4995764;28;20030;-60
2022/05/04 11:26:19;;;;;;;18.13;16.63;;;;;;;;;;4993900;28;20062;-60
2022/05/04 11:28:46;;;;;;;18.38;16.88;;;;;;;;;;4998814;28;20054;-60
2022/05/04 11:31:12;;;;;;;18.45;16.70;;;;;;;;;;5009447;28;20045;-60
2022/05/04 11:33:40;;;;;;;17.95;16.35;;;;;;;;;;5008936;28;20068;-60
2022/05/04 11:36:06;;;;;;;17.95;16.10;;;;;;;;;;4999909;28;20036;-61
2022/05/04 11:38:32;;;;;;;16.42;14.75;;;;;;;;;;5009208;28;20065;-60
2022/05/04 11:40:57;;;;;;;15.50;14.32;;;;;;;;;;5009189;28;20448;-60
2022/05/04 11:43:33;;;;;;;16.05;14.75;;;;;;;;;;5005308;28;20030;-60
2022/05/04 11:46:07;;;;;;;15.32;14.15;;;;;;;;;;5003408;28;20400;-60
2022/05/04 11:48:44;;;;;;;16.10;14.88;;;;;;;;;;5009172;28;20153;-61
2022/05/04 11:51:12;;;;;;;15.60;14.40;;;;;;;;;;5007955;28;20092;-61
2022/05/04 11:53:38;;;;;;;15.23;14.02;;;;;;;;;;4999093;28;20451;-60
2022/05/04 11:56:06;;;;;;;15.73;14.43;;;;;;;;;;4996780;28;20496;-60
2022/05/04 11:58:34;;;;;;;16.92;15.18;;;;;;;;;;5005458;28;20371;-60
2022/05/04 12:01:01;;;;;;;15.88;14.75;;;;;;;;;;4998126;28;20045;-61
2022/05/04 12:03:29;;;;;;;16.63;15.30;;;;;;;;;;5002112;28;20042;-60
2022/05/04 12:05:55;;;;;;;16.20;14.98;;;;;;;;;;5002984;28;20057;-60
2022/05/04 12:08:22;;;;;;;15.73;14.52;;;;;;;;;;5005814;28;20385;-60
2022/05/04 12:10:49;;;;;;;16.88;15.57;;;;;;;;;;4996150;28;20030;-61
2022/05/04 12:13:21;;;;;;;18.58;16.73;;;;;;;;;;4997692;28;20049;-61
2022/05/04 12:15:47;;;;;;;16.50;15.30;;;;;;;;;;5008109;28;20081;-61
2022/05/04 12:18:14;;;;;;;15.57;14.48;;;;;;;;;;5001197;28;20041;-61
2022/05/04 12:20:43;;;;;;;17.17;15.73;;;;;;;;;;4995563;28;20409;-61
2022/05/04 12:23:10;;;;;;;16.70;15.43;;;;;;;;;;5002083;28;20105;-61
2022/05/04 12:25:35;;;;;;;16.50;15.30;;;;;;;;;;4996285;28;20508;-61
2022/05/04 12:28:02;;;;;;;16.13;14.65;;;;;;;;;;4997406;28;20047;-60
2022/05/04 12:33:13;;;;;;;15.75;14.65;;;;;;;;;;5008027;28;20048;-61
2022/05/04 12:35:44;;;;;;;16.48;15.18;;;;;;;;;;4999788;28;20021;-61
2022/05/04 12:38:13;;;;;;;16.38;15.02;;;;;;;;;;4981844;28;20426;-61
2022/05/04 12:40:39;;;;;;;16.50;15.07;;;;;;;;;;5006261;28;20038;-61
2022/05/04 12:43:06;;;;;;;17.05;15.35;;;;;;;;;;5007508;28;20049;-61
2022/05/04 12:45:36;;;;;;;17.15;15.80;;;;;;;;;;5001157;28;20234;-61
2022/05/04 12:48:06;;;;;;;16.77;15.43;;;;;;;;;;5001605;28;20607;-61
2022/05/04 12:50:33;;;;;;;16.60;15.27;;;;;;;;;;5008062;28;20096;-61
2022/05/04 12:52:59;;;;;;;16.20;15.10;;;;;;;;;;5006329;28;20034;-60
2022/05/04 12:58:10;;;;;;;17.00;15.52;;;;;;;;;;4991318;28;20437;-60
2022/05/04 13:00:36;;;;;;;16.73;15.32;;;;;;;;;;5005789;28;20152;-60
2022/05/04 13:03:04;;;;;;;15.13;14.02;;;;;;;;;;5005890;28;20372;-59
2022/05/04 13:05:30;;;;;;;15.50;14.20;;;;;;;;;;5005672;28;20416;-60
2022/05/04 13:07:56;;;;;;;16.63;15.10;;;;;;;;;;5000818;28;20026;-60
2022/05/04 13:10:21;;;;;;;15.68;14.20;;;;;;;;;;5003231;28;20069;-60
2022/05/04 13:12:47;;;;;;;15.98;14.77;;;;;;;;;;4996184;28;20045;-61
2022/05/04 13:15:12;;;;;;;16.77;15.18;;;;;;;;;;4997914;28;20054;-60
2022/05/04 13:17:40;;;;;;;16.17;14.93;;;;;;;;;;5004646;28;20470;-60
2022/05/04 13:20:07;;;;;;;16.88;15.68;;;;;;;;;;5010092;28;20045;-61
2022/05/04 13:22:34;;;;;;;16.88;15.40;;;;;;;;;;5003485;28;20037;-60
2022/05/04 13:25:00;;;;;;;17.77;16.13;;;;;;;;;;5003467;28;20042;-60
2022/05/04 13:27:27;;;;;;;15.90;14.80;;;;;;;;;;5007744;28;20175;-60
2022/05/04 13:29:52;;;;;;;15.45;14.18;;;;;;;;;;5005700;28;20053;-59
2022/05/04 13:32:18;;;;;;;15.65;14.50;;;;;;;;;;5003458;28;20048;-59
2022/05/04 13:34:44;;;;;;;15.70;14.20;;;;;;;;;;5009503;28;20041;-59
2022/05/04 13:37:09;;;;;;;15.68;14.45;;;;;;;;;;5008568;28;20120;-59
2022/05/04 13:39:36;;;;;;;13.90;12.65;;;;;;;;;;5004725;28;20587;-60
2022/05/04 13:42:03;;;;;;;13.98;12.98;;;;;;;;;;5005536;28;20061;-60
2022/05/04 13:44:29;;;;;;;14.52;13.43;;;;;;;;;;5009490;28;20038;-60
2022/05/04 13:46:55;;;;;;;15.38;14.27;;;;;;;;;;5005343;28;20061;-60
2022/05/04 13:49:21;;;;;;;15.57;14.48;;;;;;;;;;5003075;28;20041;-58
2022/05/04 13:54:31;;;;;;;14.43;13.23;;;;;;;;;;4998403;28;20493;-59
2022/05/04 13:56:57;;;;;;;15.45;14.25;;;;;;;;;;5004943;28;20095;-58
2022/05/04 13:59:23;;;;;;;15.70;14.50;;;;;;;;;;5009418;28;20155;-58
2022/05/04 14:01:49;;;;;;;14.95;13.95;;;;;;;;;;5009088;28;20109;-57
2022/05/04 14:04:14;;;;;;;15.50;14.40;;;;;;;;;;5000006;28;20050;-59
2022/05/04 14:06:41;;;;;;;15.40;14.23;;;;;;;;;;5005810;28;20041;-60
2022/05/04 14:09:07;;;;;;;15.75;14.20;;;;;;;;;;5009352;28;20496;-58
2022/05/04 14:11:33;;;;;;;14.63;13.38;;;;;;;;;;5009388;28;20099;-59
2022/05/04 14:16:44;;;;;;;15.40;14.30;;;;;;;;;;5001696;28;20449;-57
2022/05/04 14:19:10;;;;;;;15.98;14.68;;;;;;;;;;5009244;28;20049;-58
2022/05/04 14:21:37;;;;;;;16.08;14.75;;;;;;;;;;5004770;28;20531;-59
2022/05/04 14:24:04;;;;;;;16.13;14.93;;;;;;;;;;5002948;28;20041;-54
2022/05/04 14:26:33;;;;;;;15.50;14.38;;;;;;;;;;5001948;28;20046;-59
2022/05/04 14:29:00;;;;;;;15.20;14.00;;;;;;;;;;5005224;28;20068;-60
2022/05/04 14:31:25;;;;;;;13.75;12.77;;;;;;;;;;4998965;28;20046;-60
2022/05/04 14:33:51;;;;;;;14.57;13.40;;;;;;;;;;5002738;28;20542;-59
2022/05/04 14:36:17;;;;;;;14.10;13.05;;;;;;;;;;4992702;28;20123;-60
2022/05/04 14:38:42;;;;;;;13.55;12.65;;;;;;;;;;5010433;28;20091;-58
2022/05/04 14:41:08;;;;;;;13.27;12.45;;;;;;;;;;5003536;28;20711;-59
2022/05/04 14:43:34;;;;;;;13.90;12.88;;;;;;;;;;4992129;28;20041;-59
2022/05/04 14:46:00;;;;;;;13.82;12.80;;;;;;;;;;5009836;28;20041;-60
2022/05/04 14:48:26;;;;;;;12.32;11.45;;;;;;;;;;5009955;28;20101;-58
2022/05/04 14:50:52;;;;;;;12.48;11.57;;;;;;;;;;5000016;28;20109;-60
2022/05/04 14:53:17;;;;;;;12.65;11.85;;;;;;;;;;5003125;28;20413;-60
2022/05/04 14:55:43;;;;;;;12.90;12.10;;;;;;;;;;5003447;28;20030;-59
2022/05/04 14:58:08;;;;;;;13.02;12.13;;;;;;;;;;5005800;28;20135;-59
2022/05/04 15:00:35;;;;;;;13.27;12.30;;;;;;;;;;5006385;28;20034;-60